sensor_id;sensor_type;location;lat;lon;timestamp;P1;durP1;ratioP1;P2;durP2;ratioP2
9052;SDS011;4561;47.450;7.516;2023-04-09T00:03:07;15.40;;;13.90;;
9052;SDS011;4561;47.450;7.516;2023-04-09T00:06:28;15.07;;;13.67;;
9052;SDS011;4561;47.450;7.516;2023-04-09T00:09:48;14.87;;;13.57;;
9052;SDS011;4561;47.450;7.516;2023-04-09T00:13:10;14.83;;;13.40;;
9052;SDS011;4561;47.450;7.516;2023-04-09T00:16:31;15.20;;;13.77;;
9052;SDS011;4561;47.450;7.516;2023-04-09T00:19:51;15.83;;;14.43;;
9052;SDS011;4561;47.450;7.516;2023-04-09T00:23:12;15.53;;;14.10;;
9052;SDS011;4561;47.450;7.516;2023-04-09T00:26:32;16.07;;;14.47;;
9052;SDS011;4561;47.450;7.516;2023-04-09T00:29:53;16.23;;;14.57;;
9052;SDS011;4561;47.450;7.516;2023-04-09T00:33:14;17.40;;;15.87;;
9052;SDS011;4561;47.450;7.516;2023-04-09T00:36:37;16.90;;;15.33;;
9052;SDS011;4561;47.450;7.516;2023-04-09T00:39:57;17.30;;;15.70;;
9052;SDS011;4561;47.450;7.516;2023-04-09T00:43:17;17.70;;;16.10;;
9052;SDS011;4561;47.450;7.516;2023-04-09T00:46:38;16.03;;;14.57;;
9052;SDS011;4561;47.450;7.516;2023-04-09T00:50:01;17.53;;;15.93;;
9052;SDS011;4561;47.450;7.516;2023-04-09T00:53:22;17.77;;;16.17;;
9052;SDS011;4561;47.450;7.516;2023-04-09T00:56:44;17.63;;;16.03;;
9052;SDS011;4561;47.450;7.516;2023-04-09T01:00:08;16.40;;;14.93;;
9052;SDS011;4561;47.450;7.516;2023-04-09T01:03:30;17.73;;;16.00;;
9052;SDS011;4561;47.450;7.516;2023-04-09T01:06:51;18.77;;;16.97;;
9052;SDS011;4561;47.450;7.516;2023-04-09T01:13:48;18.17;;;16.33;;
9052;SDS011;4561;47.450;7.516;2023-04-09T01:17:18;19.30;;;17.50;;
9052;SDS011;4561;47.450;7.516;2023-04-09T01:20:42;17.97;;;16.37;;
9052;SDS011;4561;47.450;7.516;2023-04-09T01:28:34;18.63;;;16.93;;
9052;SDS011;4561;47.450;7.516;2023-04-09T01:31:34;17.13;;;15.43;;
9052;SDS011;4561;47.450;7.516;2023-04-09T01:34:58;17.93;;;16.30;;
9052;SDS011;4561;47.450;7.516;2023-04-09T01:38:19;17.43;;;15.73;;
9052;SDS011;4561;47.450;7.516;2023-04-09T01:41:43;17.00;;;15.47;;
9052;SDS011;4561;47.450;7.516;2023-04-09T01:45:03;17.40;;;15.90;;
9052;SDS011;4561;47.450;7.516;2023-04-09T01:48:25;16.33;;;14.93;;
9052;SDS011;4561;47.450;7.516;2023-04-09T01:51:46;16.97;;;15.47;;
9052;SDS011;4561;47.450;7.516;2023-04-09T01:55:08;16.80;;;15.30;;
9052;SDS011;4561;47.450;7.516;2023-04-09T01:58:29;16.93;;;15.40;;
9052;SDS011;4561;47.450;7.516;2023-04-09T02:01:54;17.80;;;16.10;;
9052;SDS011;4561;47.450;7.516;2023-04-09T02:05:17;17.27;;;15.73;;
9052;SDS011;4561;47.450;7.516;2023-04-09T02:08:38;17.77;;;15.97;;
9052;SDS011;4561;47.450;7.516;2023-04-09T02:12:04;18.33;;;16.53;;
9052;SDS011;4561;47.450;7.516;2023-04-09T02:15:28;18.43;;;16.73;;
9052;SDS011;4561;47.450;7.516;2023-04-09T02:18:53;18.20;;;16.40;;
9052;SDS011;4561;47.450;7.516;2023-04-09T02:22:20;17.50;;;15.80;;
9052;SDS011;4561;47.450;7.516;2023-04-09T02:25:43;15.67;;;14.17;;
9052;SDS011;4561;47.450;7.516;2023-04-09T02:29:04;15.07;;;13.60;;
9052;SDS011;4561;47.450;7.516;2023-04-09T02:32:25;14.57;;;13.07;;
9052;SDS011;4561;47.450;7.516;2023-04-09T02:35:48;15.00;;;13.60;;
9052;SDS011;4561;47.450;7.516;2023-04-09T02:39:08;14.47;;;12.97;;
9052;SDS011;4561;47.450;7.516;2023-04-09T02:42:31;14.17;;;12.67;;
9052;SDS011;4561;47.450;7.516;2023-04-09T02:45:52;11.93;;;10.80;;
9052;SDS011;4561;47.450;7.516;2023-04-09T02:49:12;12.27;;;11.17;;
9052;SDS011;4561;47.450;7.516;2023-04-09T02:52:33;12.20;;;11.10;;
9052;SDS011;4561;47.450;7.516;2023-04-09T02:55:55;14.13;;;12.83;;
9052;SDS011;4561;47.450;7.516;2023-04-09T02:59:16;14.73;;;13.33;;
9052;SDS011;4561;47.450;7.516;2023-04-09T03:02:36;15.37;;;13.93;;
9052;SDS011;4561;47.450;7.516;2023-04-09T03:06:00;15.03;;;13.67;;
9052;SDS011;4561;47.450;7.516;2023-04-09T03:09:25;14.30;;;13.00;;
9052;SDS011;4561;47.450;7.516;2023-04-09T03:12:46;13.67;;;12.37;;
9052;SDS011;4561;47.450;7.516;2023-04-09T03:16:06;13.10;;;11.80;;
9052;SDS011;4561;47.450;7.516;2023-04-09T03:19:29;14.57;;;13.00;;
9052;SDS011;4561;47.450;7.516;2023-04-09T03:22:50;13.77;;;12.40;;
9052;SDS011;4561;47.450;7.516;2023-04-09T03:26:10;14.87;;;13.43;;
9052;SDS011;4561;47.450;7.516;2023-04-09T03:29:33;16.63;;;14.83;;
9052;SDS011;4561;47.450;7.516;2023-04-09T03:32:53;15.17;;;13.50;;
9052;SDS011;4561;47.450;7.516;2023-04-09T03:36:17;14.87;;;13.47;;
9052;SDS011;4561;47.450;7.516;2023-04-09T03:39:38;16.27;;;14.73;;
9052;SDS011;4561;47.450;7.516;2023-04-09T03:42:58;14.70;;;13.40;;
9052;SDS011;4561;47.450;7.516;2023-04-09T03:46:18;17.03;;;15.33;;
9052;SDS011;4561;47.450;7.516;2023-04-09T03:49:39;16.20;;;14.50;;
9052;SDS011;4561;47.450;7.516;2023-04-09T03:52:59;16.80;;;14.97;;
9052;SDS011;4561;47.450;7.516;2023-04-09T03:56:23;17.07;;;15.47;;
9052;SDS011;4561;47.450;7.516;2023-04-09T03:59:45;16.33;;;14.77;;
9052;SDS011;4561;47.450;7.516;2023-04-09T04:03:07;16.43;;;14.90;;
9052;SDS011;4561;47.450;7.516;2023-04-09T04:06:31;17.90;;;16.03;;
9052;SDS011;4561;47.450;7.516;2023-04-09T04:09:52;18.10;;;16.30;;
9052;SDS011;4561;47.450;7.516;2023-04-09T04:13:15;19.03;;;17.20;;
9052;SDS011;4561;47.450;7.516;2023-04-09T04:16:41;18.43;;;16.27;;
9052;SDS011;4561;47.450;7.516;2023-04-09T04:20:02;19.13;;;17.27;;
9052;SDS011;4561;47.450;7.516;2023-04-09T04:23:23;19.37;;;17.37;;
9052;SDS011;4561;47.450;7.516;2023-04-09T04:26:43;18.30;;;16.53;;
9052;SDS011;4561;47.450;7.516;2023-04-09T04:30:03;19.63;;;17.63;;
9052;SDS011;4561;47.450;7.516;2023-04-09T04:33:24;18.73;;;16.90;;
9052;SDS011;4561;47.450;7.516;2023-04-09T04:36:45;20.00;;;18.00;;
9052;SDS011;4561;47.450;7.516;2023-04-09T04:40:10;19.67;;;17.73;;
9052;SDS011;4561;47.450;7.516;2023-04-09T04:43:35;20.73;;;18.73;;
9052;SDS011;4561;47.450;7.516;2023-04-09T04:46:55;20.07;;;18.03;;
9052;SDS011;4561;47.450;7.516;2023-04-09T04:50:18;19.87;;;17.97;;
9052;SDS011;4561;47.450;7.516;2023-04-09T04:53:41;20.07;;;18.07;;
9052;SDS011;4561;47.450;7.516;2023-04-09T04:57:02;19.70;;;17.80;;
9052;SDS011;4561;47.450;7.516;2023-04-09T05:00:22;20.77;;;18.67;;
9052;SDS011;4561;47.450;7.516;2023-04-09T05:03:43;21.73;;;19.53;;
9052;SDS011;4561;47.450;7.516;2023-04-09T05:07:06;21.37;;;19.27;;
9052;SDS011;4561;47.450;7.516;2023-04-09T05:10:27;23.00;;;20.73;;
9052;SDS011;4561;47.450;7.516;2023-04-09T05:13:47;21.97;;;19.67;;
9052;SDS011;4561;47.450;7.516;2023-04-09T05:17:10;22.13;;;19.93;;
9052;SDS011;4561;47.450;7.516;2023-04-09T05:20:35;21.77;;;19.57;;
9052;SDS011;4561;47.450;7.516;2023-04-09T05:23:56;21.90;;;19.70;;
9052;SDS011;4561;47.450;7.516;2023-04-09T05:27:18;20.97;;;18.97;;
9052;SDS011;4561;47.450;7.516;2023-04-09T05:30:44;21.53;;;19.43;;
9052;SDS011;4561;47.450;7.516;2023-04-09T05:34:06;20.80;;;18.83;;
9052;SDS011;4561;47.450;7.516;2023-04-09T05:37:26;20.00;;;18.10;;
9052;SDS011;4561;47.450;7.516;2023-04-09T05:40:46;19.83;;;17.93;;
9052;SDS011;4561;47.450;7.516;2023-04-09T05:44:07;19.73;;;17.73;;
9052;SDS011;4561;47.450;7.516;2023-04-09T05:47:28;20.40;;;18.27;;
9052;SDS011;4561;47.450;7.516;2023-04-09T05:50:51;21.40;;;19.20;;
9052;SDS011;4561;47.450;7.516;2023-04-09T05:54:11;19.87;;;17.97;;
9052;SDS011;4561;47.450;7.516;2023-04-09T05:57:35;19.77;;;17.87;;
9052;SDS011;4561;47.450;7.516;2023-04-09T06:00:55;18.50;;;16.70;;
9052;SDS011;4561;47.450;7.516;2023-04-09T06:04:16;19.63;;;17.67;;
9052;SDS011;4561;47.450;7.516;2023-04-09T06:07:36;18.63;;;16.93;;
9052;SDS011;4561;47.450;7.516;2023-04-09T06:10:57;18.67;;;16.93;;
9052;SDS011;4561;47.450;7.516;2023-04-09T06:14:17;18.23;;;16.40;;
9052;SDS011;4561;47.450;7.516;2023-04-09T06:17:40;17.93;;;16.23;;
9052;SDS011;4561;47.450;7.516;2023-04-09T06:21:04;18.60;;;16.80;;
9052;SDS011;4561;47.450;7.516;2023-04-09T06:24:25;18.87;;;17.07;;
9052;SDS011;4561;47.450;7.516;2023-04-09T06:27:49;18.03;;;16.30;;
9052;SDS011;4561;47.450;7.516;2023-04-09T06:31:10;17.97;;;16.27;;
9052;SDS011;4561;47.450;7.516;2023-04-09T06:34:31;18.13;;;16.33;;
9052;SDS011;4561;47.450;7.516;2023-04-09T06:37:51;17.47;;;15.77;;
9052;SDS011;4561;47.450;7.516;2023-04-09T06:41:11;18.63;;;16.73;;
9052;SDS011;4561;47.450;7.516;2023-04-09T06:44:33;18.30;;;16.47;;
9052;SDS011;4561;47.450;7.516;2023-04-09T06:47:57;18.77;;;16.97;;
9052;SDS011;4561;47.450;7.516;2023-04-09T06:51:18;17.97;;;16.27;;
9052;SDS011;4561;47.450;7.516;2023-04-09T06:54:38;17.90;;;16.20;;
9052;SDS011;4561;47.450;7.516;2023-04-09T06:57:59;18.30;;;16.40;;
9052;SDS011;4561;47.450;7.516;2023-04-09T07:01:20;17.97;;;16.27;;
9052;SDS011;4561;47.450;7.516;2023-04-09T07:04:40;17.40;;;15.70;;
9052;SDS011;4561;47.450;7.516;2023-04-09T07:08:01;17.37;;;15.67;;
9052;SDS011;4561;47.450;7.516;2023-04-09T07:11:21;18.00;;;16.23;;
9052;SDS011;4561;47.450;7.516;2023-04-09T07:14:41;18.30;;;16.50;;
9052;SDS011;4561;47.450;7.516;2023-04-09T07:18:04;18.67;;;16.87;;
9052;SDS011;4561;47.450;7.516;2023-04-09T07:21:25;17.57;;;15.87;;
9052;SDS011;4561;47.450;7.516;2023-04-09T07:24:47;15.73;;;14.33;;
9052;SDS011;4561;47.450;7.516;2023-04-09T07:28:12;16.80;;;15.27;;
9052;SDS011;4561;47.450;7.516;2023-04-09T07:31:35;18.47;;;16.70;;
9052;SDS011;4561;47.450;7.516;2023-04-09T07:34:56;16.93;;;15.33;;
9052;SDS011;4561;47.450;7.516;2023-04-09T07:38:18;16.67;;;15.07;;
9052;SDS011;4561;47.450;7.516;2023-04-09T07:41:40;16.70;;;15.00;;
9052;SDS011;4561;47.450;7.516;2023-04-09T07:45:04;16.80;;;15.30;;
9052;SDS011;4561;47.450;7.516;2023-04-09T07:48:27;16.30;;;14.70;;
9052;SDS011;4561;47.450;7.516;2023-04-09T07:51:47;15.40;;;13.90;;
9052;SDS011;4561;47.450;7.516;2023-04-09T07:55:11;14.53;;;13.03;;
9052;SDS011;4561;47.450;7.516;2023-04-09T07:58:31;13.70;;;12.50;;
9052;SDS011;4561;47.450;7.516;2023-04-09T08:01:54;14.60;;;13.20;;
9052;SDS011;4561;47.450;7.516;2023-04-09T08:05:14;13.33;;;12.13;;
9052;SDS011;4561;47.450;7.516;2023-04-09T08:08:37;13.37;;;12.17;;
9052;SDS011;4561;47.450;7.516;2023-04-09T08:11:57;12.30;;;11.20;;
9052;SDS011;4561;47.450;7.516;2023-04-09T08:15:18;12.50;;;11.40;;
9052;SDS011;4561;47.450;7.516;2023-04-09T08:18:41;13.13;;;11.90;;
9052;SDS011;4561;47.450;7.516;2023-04-09T08:22:04;11.77;;;10.77;;
9052;SDS011;4561;47.450;7.516;2023-04-09T08:25:25;11.63;;;10.63;;
9052;SDS011;4561;47.450;7.516;2023-04-09T08:28:45;13.00;;;11.70;;
9052;SDS011;4561;47.450;7.516;2023-04-09T08:32:06;11.77;;;10.67;;
9052;SDS011;4561;47.450;7.516;2023-04-09T08:35:28;11.50;;;10.30;;
9052;SDS011;4561;47.450;7.516;2023-04-09T08:38:49;11.17;;;10.13;;
9052;SDS011;4561;47.450;7.516;2023-04-09T08:42:12;11.40;;;10.50;;
9052;SDS011;4561;47.450;7.516;2023-04-09T08:45:33;11.30;;;10.40;;
9052;SDS011;4561;47.450;7.516;2023-04-09T08:48:56;9.83;;;9.00;;
9052;SDS011;4561;47.450;7.516;2023-04-09T08:52:16;9.80;;;9.00;;
9052;SDS011;4561;47.450;7.516;2023-04-09T08:55:43;10.97;;;10.07;;
9052;SDS011;4561;47.450;7.516;2023-04-09T08:59:04;10.63;;;9.73;;
9052;SDS011;4561;47.450;7.516;2023-04-09T09:02:32;10.07;;;9.17;;
9052;SDS011;4561;47.450;7.516;2023-04-09T09:05:55;10.53;;;9.63;;
9052;SDS011;4561;47.450;7.516;2023-04-09T09:09:19;8.83;;;8.07;;
9052;SDS011;4561;47.450;7.516;2023-04-09T09:12:40;10.27;;;9.37;;
9052;SDS011;4561;47.450;7.516;2023-04-09T09:16:10;9.97;;;9.07;;
9052;SDS011;4561;47.450;7.516;2023-04-09T09:19:34;9.30;;;8.50;;
9052;SDS011;4561;47.450;7.516;2023-04-09T09:22:55;9.33;;;8.53;;
9052;SDS011;4561;47.450;7.516;2023-04-09T09:26:25;9.53;;;8.73;;
9052;SDS011;4561;47.450;7.516;2023-04-09T09:29:50;8.83;;;8.13;;
9052;SDS011;4561;47.450;7.516;2023-04-09T09:33:10;9.23;;;8.43;;
9052;SDS011;4561;47.450;7.516;2023-04-09T09:36:31;9.07;;;8.37;;
9052;SDS011;4561;47.450;7.516;2023-04-09T09:39:57;9.40;;;8.70;;
9052;SDS011;4561;47.450;7.516;2023-04-09T09:43:18;8.65;;;7.90;;
9052;SDS011;4561;47.450;7.516;2023-04-09T09:46:39;8.50;;;7.90;;
9052;SDS011;4561;47.450;7.516;2023-04-09T09:50:03;7.78;;;7.18;;
9052;SDS011;4561;47.450;7.516;2023-04-09T09:53:26;7.30;;;6.70;;
9052;SDS011;4561;47.450;7.516;2023-04-09T09:56:51;8.27;;;7.68;;
9052;SDS011;4561;47.450;7.516;2023-04-09T10:00:14;8.65;;;7.95;;
9052;SDS011;4561;47.450;7.516;2023-04-09T10:03:37;8.77;;;8.07;;
9052;SDS011;4561;47.450;7.516;2023-04-09T10:06:58;8.63;;;7.93;;
9052;SDS011;4561;47.450;7.516;2023-04-09T10:10:22;8.05;;;7.45;;
9052;SDS011;4561;47.450;7.516;2023-04-09T10:13:48;8.20;;;7.60;;
9052;SDS011;4561;47.450;7.516;2023-04-09T10:17:12;7.60;;;7.10;;
9052;SDS011;4561;47.450;7.516;2023-04-09T10:20:42;7.68;;;7.13;;
9052;SDS011;4561;47.450;7.516;2023-04-09T10:24:07;7.95;;;7.35;;
9052;SDS011;4561;47.450;7.516;2023-04-09T10:27:28;8.30;;;7.70;;
9052;SDS011;4561;47.450;7.516;2023-04-09T10:30:52;7.57;;;7.07;;
9052;SDS011;4561;47.450;7.516;2023-04-09T10:34:17;6.75;;;6.25;;
9052;SDS011;4561;47.450;7.516;2023-04-09T10:37:40;8.32;;;7.65;;
9052;SDS011;4561;47.450;7.516;2023-04-09T10:44:37;7.60;;;7.00;;
9052;SDS011;4561;47.450;7.516;2023-04-09T10:48:01;7.28;;;6.78;;
9052;SDS011;4561;47.450;7.516;2023-04-09T10:51:23;6.80;;;6.25;;
9052;SDS011;4561;47.450;7.516;2023-04-09T10:54:48;6.15;;;5.65;;
9052;SDS011;4561;47.450;7.516;2023-04-09T10:58:12;6.45;;;5.95;;
9052;SDS011;4561;47.450;7.516;2023-04-09T11:01:32;6.10;;;5.70;;
9052;SDS011;4561;47.450;7.516;2023-04-09T11:08:44;5.72;;;5.32;;
9052;SDS011;4561;47.450;7.516;2023-04-09T11:12:07;6.35;;;5.88;;
9052;SDS011;4561;47.450;7.516;2023-04-09T11:15:34;5.97;;;5.57;;
9052;SDS011;4561;47.450;7.516;2023-04-09T11:18:59;6.10;;;5.60;;
9052;SDS011;4561;47.450;7.516;2023-04-09T11:22:20;6.15;;;5.75;;
9052;SDS011;4561;47.450;7.516;2023-04-09T11:25:46;6.05;;;5.55;;
9052;SDS011;4561;47.450;7.516;2023-04-09T11:29:08;6.10;;;5.60;;
9052;SDS011;4561;47.450;7.516;2023-04-09T11:32:29;6.40;;;5.90;;
9052;SDS011;4561;47.450;7.516;2023-04-09T11:35:52;7.33;;;6.63;;
9052;SDS011;4561;47.450;7.516;2023-04-09T11:39:13;6.90;;;6.40;;
9052;SDS011;4561;47.450;7.516;2023-04-09T11:42:35;6.83;;;6.20;;
9052;SDS011;4561;47.450;7.516;2023-04-09T11:45:56;6.83;;;6.33;;
9052;SDS011;4561;47.450;7.516;2023-04-09T11:49:20;6.90;;;6.33;;
9052;SDS011;4561;47.450;7.516;2023-04-09T11:52:41;6.17;;;5.67;;
9052;SDS011;4561;47.450;7.516;2023-04-09T11:56:02;5.50;;;5.00;;
9052;SDS011;4561;47.450;7.516;2023-04-09T11:59:22;5.90;;;5.40;;
9052;SDS011;4561;47.450;7.516;2023-04-09T12:06:05;6.17;;;5.67;;
9052;SDS011;4561;47.450;7.516;2023-04-09T12:09:26;6.30;;;5.80;;
9052;SDS011;4561;47.450;7.516;2023-04-09T12:12:49;6.10;;;5.60;;
9052;SDS011;4561;47.450;7.516;2023-04-09T12:16:12;6.00;;;5.50;;
9052;SDS011;4561;47.450;7.516;2023-04-09T12:19:38;6.37;;;5.87;;
9052;SDS011;4561;47.450;7.516;2023-04-09T12:22:58;7.30;;;6.70;;
9052;SDS011;4561;47.450;7.516;2023-04-09T12:26:22;5.77;;;5.27;;
9052;SDS011;4561;47.450;7.516;2023-04-09T12:29:48;5.63;;;5.13;;
9052;SDS011;4561;47.450;7.516;2023-04-09T12:33:08;5.40;;;5.00;;
9052;SDS011;4561;47.450;7.516;2023-04-09T12:36:29;5.90;;;5.40;;
9052;SDS011;4561;47.450;7.516;2023-04-09T12:39:52;5.00;;;4.60;;
9052;SDS011;4561;47.450;7.516;2023-04-09T12:43:12;6.40;;;4.80;;
9052;SDS011;4561;47.450;7.516;2023-04-09T12:46:32;4.87;;;4.47;;
9052;SDS011;4561;47.450;7.516;2023-04-09T12:49:55;5.70;;;5.20;;
9052;SDS011;4561;47.450;7.516;2023-04-09T12:53:15;4.83;;;4.43;;
9052;SDS011;4561;47.450;7.516;2023-04-09T12:56:36;5.00;;;4.60;;
9052;SDS011;4561;47.450;7.516;2023-04-09T12:59:56;4.90;;;4.50;;
9052;SDS011;4561;47.450;7.516;2023-04-09T13:03:19;5.90;;;5.20;;
9052;SDS011;4561;47.450;7.516;2023-04-09T13:06:40;5.37;;;4.87;;
9052;SDS011;4561;47.450;7.516;2023-04-09T13:10:01;4.50;;;4.10;;
9052;SDS011;4561;47.450;7.516;2023-04-09T13:13:21;4.73;;;4.33;;
9052;SDS011;4561;47.450;7.516;2023-04-09T13:16:41;4.37;;;3.97;;
9052;SDS011;4561;47.450;7.516;2023-04-09T13:20:02;4.80;;;4.40;;
9052;SDS011;4561;47.450;7.516;2023-04-09T13:23:25;4.00;;;3.60;;
9052;SDS011;4561;47.450;7.516;2023-04-09T13:26:46;4.73;;;4.33;;
9052;SDS011;4561;47.450;7.516;2023-04-09T13:30:07;4.33;;;3.93;;
9052;SDS011;4561;47.450;7.516;2023-04-09T13:33:31;4.43;;;4.03;;
9052;SDS011;4561;47.450;7.516;2023-04-09T13:36:54;4.33;;;3.93;;
9052;SDS011;4561;47.450;7.516;2023-04-09T13:40:15;5.20;;;4.80;;
9052;SDS011;4561;47.450;7.516;2023-04-09T13:43:36;3.90;;;3.60;;
9052;SDS011;4561;47.450;7.516;2023-04-09T13:46:56;3.83;;;3.53;;
9052;SDS011;4561;47.450;7.516;2023-04-09T13:50:19;3.80;;;3.50;;
9052;SDS011;4561;47.450;7.516;2023-04-09T13:53:41;3.70;;;3.13;;
9052;SDS011;4561;47.450;7.516;2023-04-09T13:57:02;3.70;;;3.40;;
9052;SDS011;4561;47.450;7.516;2023-04-09T14:00:25;4.30;;;3.90;;
9052;SDS011;4561;47.450;7.516;2023-04-09T14:03:46;3.87;;;3.57;;
9052;SDS011;4561;47.450;7.516;2023-04-09T14:07:06;2.80;;;2.60;;
9052;SDS011;4561;47.450;7.516;2023-04-09T14:10:27;3.53;;;3.23;;
9052;SDS011;4561;47.450;7.516;2023-04-09T14:13:47;3.23;;;3.03;;
9052;SDS011;4561;47.450;7.516;2023-04-09T14:17:08;4.03;;;3.73;;
9052;SDS011;4561;47.450;7.516;2023-04-09T14:20:28;3.73;;;3.43;;
9052;SDS011;4561;47.450;7.516;2023-04-09T14:23:49;3.97;;;3.67;;
9052;SDS011;4561;47.450;7.516;2023-04-09T14:27:15;3.40;;;3.10;;
9052;SDS011;4561;47.450;7.516;2023-04-09T14:30:38;3.83;;;3.53;;
9052;SDS011;4561;47.450;7.516;2023-04-09T14:34:01;4.43;;;4.03;;
9052;SDS011;4561;47.450;7.516;2023-04-09T14:37:24;4.17;;;3.77;;
9052;SDS011;4561;47.450;7.516;2023-04-09T14:40:44;4.23;;;3.83;;
9052;SDS011;4561;47.450;7.516;2023-04-09T14:44:07;3.40;;;3.10;;
9052;SDS011;4561;47.450;7.516;2023-04-09T14:47:32;3.80;;;3.50;;
9052;SDS011;4561;47.450;7.516;2023-04-09T14:50:52;4.77;;;3.73;;
9052;SDS011;4561;47.450;7.516;2023-04-09T14:54:15;4.03;;;3.63;;
9052;SDS011;4561;47.450;7.516;2023-04-09T14:57:35;3.63;;;3.33;;
9052;SDS011;4561;47.450;7.516;2023-04-09T15:00:59;3.67;;;3.37;;
9052;SDS011;4561;47.450;7.516;2023-04-09T15:04:19;6.90;;;3.57;;
9052;SDS011;4561;47.450;7.516;2023-04-09T15:07:40;3.63;;;3.33;;
9052;SDS011;4561;47.450;7.516;2023-04-09T15:11:00;3.43;;;3.13;;
9052;SDS011;4561;47.450;7.516;2023-04-09T15:14:21;3.80;;;3.50;;
9052;SDS011;4561;47.450;7.516;2023-04-09T15:17:45;3.90;;;3.60;;
9052;SDS011;4561;47.450;7.516;2023-04-09T15:21:05;3.77;;;3.47;;
9052;SDS011;4561;47.450;7.516;2023-04-09T15:24:26;3.30;;;3.10;;
9052;SDS011;4561;47.450;7.516;2023-04-09T15:27:46;3.40;;;3.10;;
9052;SDS011;4561;47.450;7.516;2023-04-09T15:31:09;3.60;;;3.30;;
9052;SDS011;4561;47.450;7.516;2023-04-09T15:34:31;3.97;;;3.40;;
9052;SDS011;4561;47.450;7.516;2023-04-09T15:37:52;3.87;;;3.57;;
9052;SDS011;4561;47.450;7.516;2023-04-09T15:41:14;3.87;;;3.57;;
9052;SDS011;4561;47.450;7.516;2023-04-09T15:44:36;4.07;;;3.77;;
9052;SDS011;4561;47.450;7.516;2023-04-09T15:47:58;4.30;;;3.90;;
9052;SDS011;4561;47.450;7.516;2023-04-09T15:51:19;3.63;;;3.33;;
9052;SDS011;4561;47.450;7.516;2023-04-09T15:54:44;3.87;;;3.57;;
9052;SDS011;4561;47.450;7.516;2023-04-09T15:58:07;4.27;;;3.80;;
9052;SDS011;4561;47.450;7.516;2023-04-09T16:01:27;4.67;;;4.27;;
9052;SDS011;4561;47.450;7.516;2023-04-09T16:04:47;3.83;;;3.53;;
9052;SDS011;4561;47.450;7.516;2023-04-09T16:08:08;3.83;;;3.50;;
9052;SDS011;4561;47.450;7.516;2023-04-09T16:11:28;5.00;;;4.60;;
9052;SDS011;4561;47.450;7.516;2023-04-09T16:14:49;4.27;;;3.97;;
9052;SDS011;4561;47.450;7.516;2023-04-09T16:18:12;4.70;;;4.30;;
9052;SDS011;4561;47.450;7.516;2023-04-09T16:21:32;4.97;;;4.57;;
9052;SDS011;4561;47.450;7.516;2023-04-09T16:24:54;4.37;;;3.97;;
9052;SDS011;4561;47.450;7.516;2023-04-09T16:28:18;4.70;;;4.30;;
9052;SDS011;4561;47.450;7.516;2023-04-09T16:31:40;4.03;;;3.73;;
9052;SDS011;4561;47.450;7.516;2023-04-09T16:35:01;5.30;;;4.20;;
9052;SDS011;4561;47.450;7.516;2023-04-09T16:38:21;3.93;;;3.63;;
9052;SDS011;4561;47.450;7.516;2023-04-09T16:41:46;4.83;;;4.33;;
9052;SDS011;4561;47.450;7.516;2023-04-09T16:45:06;4.23;;;3.83;;
9052;SDS011;4561;47.450;7.516;2023-04-09T16:48:28;4.20;;;3.90;;
9052;SDS011;4561;47.450;7.516;2023-04-09T16:51:49;4.90;;;4.50;;
9052;SDS011;4561;47.450;7.516;2023-04-09T16:55:12;4.30;;;3.90;;
9052;SDS011;4561;47.450;7.516;2023-04-09T16:58:32;4.73;;;4.33;;
9052;SDS011;4561;47.450;7.516;2023-04-09T17:01:53;5.37;;;4.97;;
9052;SDS011;4561;47.450;7.516;2023-04-09T17:05:13;4.60;;;4.20;;
9052;SDS011;4561;47.450;7.516;2023-04-09T17:08:34;4.90;;;4.50;;
9052;SDS011;4561;47.450;7.516;2023-04-09T17:11:57;4.70;;;4.30;;
9052;SDS011;4561;47.450;7.516;2023-04-09T17:15:17;5.37;;;4.87;;
9052;SDS011;4561;47.450;7.516;2023-04-09T17:18:41;5.20;;;4.70;;
9052;SDS011;4561;47.450;7.516;2023-04-09T17:22:02;6.10;;;5.10;;
9052;SDS011;4561;47.450;7.516;2023-04-09T17:25:26;4.73;;;4.33;;
9052;SDS011;4561;47.450;7.516;2023-04-09T17:28:46;4.73;;;4.33;;
9052;SDS011;4561;47.450;7.516;2023-04-09T17:32:07;4.43;;;4.03;;
9052;SDS011;4561;47.450;7.516;2023-04-09T17:35:29;4.83;;;4.43;;
9052;SDS011;4561;47.450;7.516;2023-04-09T17:38:50;4.70;;;4.30;;
9052;SDS011;4561;47.450;7.516;2023-04-09T17:42:15;4.90;;;4.50;;
9052;SDS011;4561;47.450;7.516;2023-04-09T17:45:36;4.80;;;4.40;;
9052;SDS011;4561;47.450;7.516;2023-04-09T17:48:56;5.40;;;4.23;;
9052;SDS011;4561;47.450;7.516;2023-04-09T17:52:20;4.93;;;4.53;;
9052;SDS011;4561;47.450;7.516;2023-04-09T17:55:45;4.47;;;4.07;;
9052;SDS011;4561;47.450;7.516;2023-04-09T17:59:09;4.07;;;3.77;;
9052;SDS011;4561;47.450;7.516;2023-04-09T18:02:30;4.30;;;3.90;;
9052;SDS011;4561;47.450;7.516;2023-04-09T18:05:56;4.00;;;3.60;;
9052;SDS011;4561;47.450;7.516;2023-04-09T18:09:16;4.23;;;3.90;;
9052;SDS011;4561;47.450;7.516;2023-04-09T18:12:37;4.10;;;3.80;;
9052;SDS011;4561;47.450;7.516;2023-04-09T18:15:57;4.50;;;4.20;;
9052;SDS011;4561;47.450;7.516;2023-04-09T18:19:19;4.70;;;4.30;;
9052;SDS011;4561;47.450;7.516;2023-04-09T18:22:42;4.10;;;3.80;;
9052;SDS011;4561;47.450;7.516;2023-04-09T18:26:03;4.43;;;4.03;;
9052;SDS011;4561;47.450;7.516;2023-04-09T18:29:23;4.37;;;4.07;;
9052;SDS011;4561;47.450;7.516;2023-04-09T18:32:46;4.30;;;3.90;;
9052;SDS011;4561;47.450;7.516;2023-04-09T18:36:10;3.90;;;3.60;;
9052;SDS011;4561;47.450;7.516;2023-04-09T18:39:31;3.90;;;3.60;;
9052;SDS011;4561;47.450;7.516;2023-04-09T18:42:53;6.00;;;3.87;;
9052;SDS011;4561;47.450;7.516;2023-04-09T18:46:16;4.23;;;3.83;;
9052;SDS011;4561;47.450;7.516;2023-04-09T18:49:36;4.37;;;4.00;;
9052;SDS011;4561;47.450;7.516;2023-04-09T18:52:57;4.17;;;3.87;;
9052;SDS011;4561;47.450;7.516;2023-04-09T18:56:17;5.03;;;4.43;;
9052;SDS011;4561;47.450;7.516;2023-04-09T18:59:38;4.10;;;3.73;;
9052;SDS011;4561;47.450;7.516;2023-04-09T19:03:00;3.83;;;3.47;;
9052;SDS011;4561;47.450;7.516;2023-04-09T19:06:20;3.93;;;3.63;;
9052;SDS011;4561;47.450;7.516;2023-04-09T19:09:41;3.97;;;3.57;;
9052;SDS011;4561;47.450;7.516;2023-04-09T19:13:03;3.77;;;3.47;;
9052;SDS011;4561;47.450;7.516;2023-04-09T19:16:23;4.20;;;3.80;;
9052;SDS011;4561;47.450;7.516;2023-04-09T19:19:44;3.87;;;3.57;;
9052;SDS011;4561;47.450;7.516;2023-04-09T19:23:07;4.47;;;4.07;;
9052;SDS011;4561;47.450;7.516;2023-04-09T19:26:28;4.07;;;3.70;;
9052;SDS011;4561;47.450;7.516;2023-04-09T19:29:54;3.50;;;3.20;;
9052;SDS011;4561;47.450;7.516;2023-04-09T19:33:20;3.60;;;3.30;;
9052;SDS011;4561;47.450;7.516;2023-04-09T19:36:41;3.60;;;3.30;;
9052;SDS011;4561;47.450;7.516;2023-04-09T19:40:02;3.37;;;3.10;;
9052;SDS011;4561;47.450;7.516;2023-04-09T19:43:25;4.33;;;3.70;;
9052;SDS011;4561;47.450;7.516;2023-04-09T19:46:46;4.00;;;3.70;;
9052;SDS011;4561;47.450;7.516;2023-04-09T19:50:10;3.80;;;3.50;;
9052;SDS011;4561;47.450;7.516;2023-04-09T19:53:31;4.40;;;4.00;;
9052;SDS011;4561;47.450;7.516;2023-04-09T19:56:55;4.17;;;3.77;;
9052;SDS011;4561;47.450;7.516;2023-04-09T20:00:15;3.67;;;3.27;;
9052;SDS011;4561;47.450;7.516;2023-04-09T20:03:36;3.27;;;3.03;;
9052;SDS011;4561;47.450;7.516;2023-04-09T20:07:01;3.20;;;2.90;;
9052;SDS011;4561;47.450;7.516;2023-04-09T20:10:24;3.03;;;2.80;;
9052;SDS011;4561;47.450;7.516;2023-04-09T20:13:45;3.67;;;3.37;;
9052;SDS011;4561;47.450;7.516;2023-04-09T20:17:07;3.70;;;3.40;;
9052;SDS011;4561;47.450;7.516;2023-04-09T20:20:28;3.20;;;3.00;;
9052;SDS011;4561;47.450;7.516;2023-04-09T20:23:49;3.50;;;3.20;;
9052;SDS011;4561;47.450;7.516;2023-04-09T20:27:12;3.97;;;3.63;;
9052;SDS011;4561;47.450;7.516;2023-04-09T20:30:32;3.80;;;3.50;;
9052;SDS011;4561;47.450;7.516;2023-04-09T20:33:53;3.20;;;3.00;;
9052;SDS011;4561;47.450;7.516;2023-04-09T20:37:13;3.73;;;3.40;;
9052;SDS011;4561;47.450;7.516;2023-04-09T20:40:34;3.30;;;3.00;;
9052;SDS011;4561;47.450;7.516;2023-04-09T20:43:56;3.47;;;3.17;;
9052;SDS011;4561;47.450;7.516;2023-04-09T20:47:16;3.00;;;2.80;;
9052;SDS011;4561;47.450;7.516;2023-04-09T20:50:36;3.07;;;2.83;;
9052;SDS011;4561;47.450;7.516;2023-04-09T20:54:00;3.50;;;3.20;;
9052;SDS011;4561;47.450;7.516;2023-04-09T20:57:20;2.93;;;2.73;;